sensor_id;sensor_type;location;lat;lon;timestamp;pressure;altitude;pressure_sealevel;temperature;humidity
5814;BME280;2933;52.302;8.134;2022-10-16T00:00:42;100155.41;;;11.88;100.00
5814;BME280;2933;52.302;8.134;2022-10-16T00:05:45;100131.63;;;11.67;100.00
5814;BME280;2933;52.302;8.134;2022-10-16T00:10:46;100160.78;;;11.73;100.00
5814;BME280;2933;52.302;8.134;2022-10-16T00:15:48;100150.78;;;11.54;100.00
5814;BME280;2933;52.302;8.134;2022-10-16T00:20:51;100155.41;;;11.51;100.00
5814;BME280;2933;52.302;8.134;2022-10-16T00:25:56;100154.47;;;11.39;100.00
5814;BME280;2933;52.302;8.134;2022-10-16T00:30:58;100161.88;;;11.45;100.00
5814;BME280;2933;52.302;8.134;2022-10-16T00:36:03;100139.94;;;11.35;100.00
5814;BME280;2933;52.302;8.134;2022-10-16T00:41:06;100155.94;;;11.43;100.00
5814;BME280;2933;52.302;8.134;2022-10-16T00:46:16;100159.00;;;11.37;100.00
5814;BME280;2933;52.302;8.134;2022-10-16T00:51:23;100160.88;;;11.22;100.00
5814;BME280;2933;52.302;8.134;2022-10-16T00:56:26;100167.06;;;11.08;100.00
5814;BME280;2933;52.302;8.134;2022-10-16T01:01:28;100171.44;;;11.07;100.00
5814;BME280;2933;52.302;8.134;2022-10-16T01:06:37;100160.06;;;11.08;100.00
5814;BME280;2933;52.302;8.134;2022-10-16T01:11:50;100162.25;;;11.02;100.00
5814;BME280;2933;52.302;8.134;2022-10-16T01:17:00;100164.75;;;10.90;100.00
5814;BME280;2933;52.302;8.134;2022-10-16T01:22:07;100144.25;;;10.71;100.00
5814;BME280;2933;52.302;8.134;2022-10-16T01:27:13;100139.94;;;10.57;100.00
5814;BME280;2933;52.302;8.134;2022-10-16T01:32:20;100165.66;;;10.63;100.00
5814;BME280;2933;52.302;8.134;2022-10-16T01:37:32;100162.75;;;10.68;100.00
5814;BME280;2933;52.302;8.134;2022-10-16T01:42:37;100168.81;;;10.69;100.00
5814;BME280;2933;52.302;8.134;2022-10-16T01:47:41;100168.16;;;10.65;100.00
5814;BME280;2933;52.302;8.134;2022-10-16T01:52:46;100173.91;;;10.70;100.00
5814;BME280;2933;52.302;8.134;2022-10-16T01:57:51;100179.25;;;10.81;100.00
5814;BME280;2933;52.302;8.134;2022-10-16T02:02:54;100173.44;;;10.91;100.00
5814;BME280;2933;52.302;8.134;2022-10-16T02:07:58;100182.19;;;11.03;100.00
5814;BME280;2933;52.302;8.134;2022-10-16T02:13:05;100170.00;;;11.03;100.00
5814;BME280;2933;52.302;8.134;2022-10-16T02:18:09;100176.69;;;10.94;100.00
5814;BME280;2933;52.302;8.134;2022-10-16T02:23:16;100172.09;;;10.98;100.00
5814;BME280;2933;52.302;8.134;2022-10-16T02:28:25;100180.34;;;11.05;100.00
5814;BME280;2933;52.302;8.134;2022-10-16T02:33:30;100153.56;;;10.88;100.00
5814;BME280;2933;52.302;8.134;2022-10-16T02:38:34;100168.53;;;10.99;100.00
5814;BME280;2933;52.302;8.134;2022-10-16T02:43:38;100178.47;;;11.07;100.00
5814;BME280;2933;52.302;8.134;2022-10-16T02:48:39;100180.75;;;10.86;100.00
5814;BME280;2933;52.302;8.134;2022-10-16T02:53:41;100163.47;;;10.70;100.00
5814;BME280;2933;52.302;8.134;2022-10-16T02:58:44;100170.78;;;10.65;100.00
5814;BME280;2933;52.302;8.134;2022-10-16T03:03:45;100179.66;;;10.62;100.00
5814;BME280;2933;52.302;8.134;2022-10-16T03:08:47;100179.22;;;10.56;100.00
5814;BME280;2933;52.302;8.134;2022-10-16T03:13:50;100181.38;;;10.49;100.00
5814;BME280;2933;52.302;8.134;2022-10-16T03:18:52;100188.28;;;10.50;100.00
5814;BME280;2933;52.302;8.134;2022-10-16T03:23:53;100177.66;;;10.53;100.00
5814;BME280;2933;52.302;8.134;2022-10-16T03:28:56;100188.88;;;10.81;100.00
5814;BME280;2933;52.302;8.134;2022-10-16T03:33:57;100179.81;;;10.99;100.00
5814;BME280;2933;52.302;8.134;2022-10-16T03:38:59;100166.63;;;10.88;100.00
5814;BME280;2933;52.302;8.134;2022-10-16T03:44:02;100182.72;;;10.95;100.00
5814;BME280;2933;52.302;8.134;2022-10-16T03:49:04;100199.66;;;11.15;100.00
5814;BME280;2933;52.302;8.134;2022-10-16T03:54:05;100182.00;;;11.06;100.00
5814;BME280;2933;52.302;8.134;2022-10-16T03:59:08;100176.38;;;11.12;100.00
5814;BME280;2933;52.302;8.134;2022-10-16T04:04:10;100184.09;;;11.13;100.00
5814;BME280;2933;52.302;8.134;2022-10-16T04:09:11;100185.56;;;11.05;100.00
5814;BME280;2933;52.302;8.134;2022-10-16T04:14:15;100195.59;;;11.11;100.00
5814;BME280;2933;52.302;8.134;2022-10-16T04:19:16;100192.34;;;11.07;100.00
5814;BME280;2933;52.302;8.134;2022-10-16T04:24:18;100178.88;;;11.01;100.00
5814;BME280;2933;52.302;8.134;2022-10-16T04:29:21;100205.94;;;11.12;100.00
5814;BME280;2933;52.302;8.134;2022-10-16T04:34:22;100223.19;;;11.15;100.00
5814;BME280;2933;52.302;8.134;2022-10-16T04:39:24;100219.47;;;11.19;100.00
5814;BME280;2933;52.302;8.134;2022-10-16T04:44:27;100226.88;;;11.12;100.00
5814;BME280;2933;52.302;8.134;2022-10-16T04:49:29;100220.41;;;11.05;100.00
5814;BME280;2933;52.302;8.134;2022-10-16T04:54:30;100226.16;;;11.10;100.00
5814;BME280;2933;52.302;8.134;2022-10-16T04:59:33;100221.34;;;11.17;100.00
5814;BME280;2933;52.302;8.134;2022-10-16T05:04:35;100229.91;;;11.19;100.00
5814;BME280;2933;52.302;8.134;2022-10-16T05:09:36;100230.22;;;11.27;100.00
5814;BME280;2933;52.302;8.134;2022-10-16T05:14:39;100227.09;;;11.22;100.00
5814;BME280;2933;52.302;8.134;2022-10-16T05:19:41;100228.66;;;11.12;100.00
5814;BME280;2933;52.302;8.134;2022-10-16T05:24:42;100245.50;;;11.21;100.00
5814;BME280;2933;52.302;8.134;2022-10-16T05:29:46;100254.56;;;11.15;100.00
5814;BME280;2933;52.302;8.134;2022-10-16T05:34:50;100248.75;;;11.24;100.00
5814;BME280;2933;52.302;8.134;2022-10-16T05:39:52;100255.53;;;11.27;100.00
5814;BME280;2933;52.302;8.134;2022-10-16T05:44:55;100269.25;;;11.30;100.00
5814;BME280;2933;52.302;8.134;2022-10-16T05:49:56;100259.38;;;11.21;100.00
5814;BME280;2933;52.302;8.134;2022-10-16T05:54:58;100268.19;;;11.33;100.00
5814;BME280;2933;52.302;8.134;2022-10-16T06:00:01;100251.13;;;11.02;100.00
5814;BME280;2933;52.302;8.134;2022-10-16T06:05:03;100278.25;;;11.26;100.00
5814;BME280;2933;52.302;8.134;2022-10-16T06:10:07;100290.16;;;11.30;100.00
5814;BME280;2933;52.302;8.134;2022-10-16T06:15:10;100298.81;;;11.18;100.00
5814;BME280;2933;52.302;8.134;2022-10-16T06:20:12;100306.03;;;11.27;100.00
5814;BME280;2933;52.302;8.134;2022-10-16T06:25:14;100317.78;;;11.22;100.00
5814;BME280;2933;52.302;8.134;2022-10-16T06:30:17;100301.44;;;11.18;100.00
5814;BME280;2933;52.302;8.134;2022-10-16T06:35:18;100311.50;;;11.24;100.00
5814;BME280;2933;52.302;8.134;2022-10-16T06:40:20;100313.81;;;11.29;100.00
5814;BME280;2933;52.302;8.134;2022-10-16T06:45:23;100323.00;;;11.35;100.00
5814;BME280;2933;52.302;8.134;2022-10-16T06:50:24;100326.38;;;11.37;100.00
5814;BME280;2933;52.302;8.134;2022-10-16T06:55:26;100349.72;;;11.53;100.00
5814;BME280;2933;52.302;8.134;2022-10-16T07:00:29;100354.84;;;11.54;100.00
5814;BME280;2933;52.302;8.134;2022-10-16T07:05:31;100363.03;;;11.62;100.00
5814;BME280;2933;52.302;8.134;2022-10-16T07:10:33;100353.38;;;11.50;100.00
5814;BME280;2933;52.302;8.134;2022-10-16T07:15:36;100392.97;;;11.71;100.00
5814;BME280;2933;52.302;8.134;2022-10-16T07:20:37;100356.63;;;11.54;100.00
5814;BME280;2933;52.302;8.134;2022-10-16T07:25:39;100409.09;;;11.78;100.00
5814;BME280;2933;52.302;8.134;2022-10-16T07:30:42;100417.06;;;11.76;100.00
5814;BME280;2933;52.302;8.134;2022-10-16T07:35:48;100428.63;;;11.72;100.00
5814;BME280;2933;52.302;8.134;2022-10-16T07:40:56;100437.75;;;11.79;100.00
5814;BME280;2933;52.302;8.134;2022-10-16T07:45:59;100444.31;;;12.00;100.00
5814;BME280;2933;52.302;8.134;2022-10-16T07:51:03;100467.91;;;12.12;100.00
5814;BME280;2933;52.302;8.134;2022-10-16T07:56:07;100471.38;;;12.26;100.00
5814;BME280;2933;52.302;8.134;2022-10-16T08:01:12;100479.63;;;12.45;100.00
5814;BME280;2933;52.302;8.134;2022-10-16T08:06:14;100470.28;;;12.54;100.00
5814;BME280;2933;52.302;8.134;2022-10-16T08:11:16;100481.91;;;12.76;100.00
5814;BME280;2933;52.302;8.134;2022-10-16T08:16:19;100462.59;;;12.77;100.00
5814;BME280;2933;52.302;8.134;2022-10-16T08:21:22;100483.22;;;12.95;100.00
5814;BME280;2933;52.302;8.134;2022-10-16T08:26:25;100497.59;;;13.02;100.00
5814;BME280;2933;52.302;8.134;2022-10-16T08:31:28;100504.91;;;13.09;100.00
5814;BME280;2933;52.302;8.134;2022-10-16T08:36:29;100513.78;;;13.20;100.00
5814;BME280;2933;52.302;8.134;2022-10-16T08:47:08;100529.06;;;13.63;100.00
5814;BME280;2933;52.302;8.134;2022-10-16T08:52:14;100528.88;;;13.66;100.00
5814;BME280;2933;52.302;8.134;2022-10-16T08:57:19;100529.06;;;13.63;100.00
5814;BME280;2933;52.302;8.134;2022-10-16T09:02:28;100513.69;;;13.70;100.00
5814;BME280;2933;52.302;8.134;2022-10-16T09:07:36;100524.63;;;13.88;100.00
5814;BME280;2933;52.302;8.134;2022-10-16T09:12:42;100533.41;;;14.00;100.00
5814;BME280;2933;52.302;8.134;2022-10-16T09:17:54;100531.75;;;14.10;100.00
5814;BME280;2933;52.302;8.134;2022-10-16T09:23:10;100546.38;;;14.37;100.00
5814;BME280;2933;52.302;8.134;2022-10-16T09:28:14;100551.53;;;14.50;98.71
5814;BME280;2933;52.302;8.134;2022-10-16T09:33:19;100557.16;;;14.45;95.94
5814;BME280;2933;52.302;8.134;2022-10-16T09:38:26;100558.00;;;14.57;95.72
5814;BME280;2933;52.302;8.134;2022-10-16T09:43:32;100559.19;;;14.64;94.68
5814;BME280;2933;52.302;8.134;2022-10-16T09:48:43;100554.19;;;14.61;93.24
5814;BME280;2933;52.302;8.134;2022-10-16T09:53:46;100572.75;;;14.71;92.88
5814;BME280;2933;52.302;8.134;2022-10-16T09:58:50;100574.06;;;14.77;91.52
5814;BME280;2933;52.302;8.134;2022-10-16T10:03:55;100567.50;;;14.82;90.14
5814;BME280;2933;52.302;8.134;2022-10-16T10:09:06;100600.13;;;15.14;89.12
5814;BME280;2933;52.302;8.134;2022-10-16T10:14:15;100611.25;;;15.06;90.14
5814;BME280;2933;52.302;8.134;2022-10-16T10:19:21;100620.69;;;14.86;90.57
5814;BME280;2933;52.302;8.134;2022-10-16T10:24:23;100612.91;;;14.73;90.03
5814;BME280;2933;52.302;8.134;2022-10-16T10:29:34;100617.00;;;14.89;91.32
5814;BME280;2933;52.302;8.134;2022-10-16T10:34:51;100621.16;;;15.25;87.98
5814;BME280;2933;52.302;8.134;2022-10-16T10:40:03;100624.97;;;15.44;86.88
5814;BME280;2933;52.302;8.134;2022-10-16T10:45:21;100620.88;;;15.62;85.49
5814;BME280;2933;52.302;8.134;2022-10-16T10:50:33;100624.47;;;15.73;82.54
5814;BME280;2933;52.302;8.134;2022-10-16T10:55:43;100629.66;;;15.40;82.75
5814;BME280;2933;52.302;8.134;2022-10-16T11:00:53;100612.88;;;15.52;82.67
5814;BME280;2933;52.302;8.134;2022-10-16T11:06:04;100632.47;;;15.82;80.99
5814;BME280;2933;52.302;8.134;2022-10-16T11:11:10;100632.41;;;16.05;78.82
5814;BME280;2933;52.302;8.134;2022-10-16T11:16:19;100638.84;;;16.12;79.56
5814;BME280;2933;52.302;8.134;2022-10-16T11:21:24;100635.91;;;16.27;79.07
5814;BME280;2933;52.302;8.134;2022-10-16T11:26:33;100649.13;;;16.15;78.61
5814;BME280;2933;52.302;8.134;2022-10-16T11:31:38;100632.47;;;15.71;80.33
5814;BME280;2933;52.302;8.134;2022-10-16T11:36:45;100666.25;;;15.55;80.41
5814;BME280;2933;52.302;8.134;2022-10-16T11:41:51;100647.50;;;15.48;81.88
5814;BME280;2933;52.302;8.134;2022-10-16T11:47:01;100664.78;;;15.96;81.08
5814;BME280;2933;52.302;8.134;2022-10-16T11:52:15;100679.84;;;16.38;76.71
5814;BME280;2933;52.302;8.134;2022-10-16T11:57:21;100662.94;;;16.61;75.14
5814;BME280;2933;52.302;8.134;2022-10-16T12:02:32;100686.25;;;16.99;74.60
5814;BME280;2933;52.302;8.134;2022-10-16T12:07:41;100692.34;;;17.20;72.41
5814;BME280;2933;52.302;8.134;2022-10-16T12:12:46;100694.88;;;17.01;72.01
5814;BME280;2933;52.302;8.134;2022-10-16T12:17:48;100693.06;;;16.80;73.79
5814;BME280;2933;52.302;8.134;2022-10-16T12:22:54;100697.09;;;16.84;75.01
5814;BME280;2933;52.302;8.134;2022-10-16T12:27:59;100687.84;;;16.90;72.19
5814;BME280;2933;52.302;8.134;2022-10-16T12:33:03;100693.22;;;17.00;70.95
5814;BME280;2933;52.302;8.134;2022-10-16T12:38:15;100693.72;;;17.15;72.75
5814;BME280;2933;52.302;8.134;2022-10-16T12:43:27;100693.66;;;17.36;72.70
5814;BME280;2933;52.302;8.134;2022-10-16T12:48:29;100701.88;;;17.11;70.48
5814;BME280;2933;52.302;8.134;2022-10-16T12:53:32;100712.00;;;17.06;72.17
5814;BME280;2933;52.302;8.134;2022-10-16T12:58:48;100718.59;;;17.22;70.77
5814;BME280;2933;52.302;8.134;2022-10-16T13:04:16;100728.53;;;17.30;68.83
5814;BME280;2933;52.302;8.134;2022-10-16T13:09:42;100715.81;;;17.44;68.99
5814;BME280;2933;52.302;8.134;2022-10-16T13:15:06;100729.69;;;17.47;66.33
5814;BME280;2933;52.302;8.134;2022-10-16T13:20:21;100730.13;;;17.42;67.29
5814;BME280;2933;52.302;8.134;2022-10-16T13:25:42;100733.03;;;17.49;67.92
5814;BME280;2933;52.302;8.134;2022-10-16T13:30:52;100738.94;;;17.62;67.46
5814;BME280;2933;52.302;8.134;2022-10-16T13:35:55;100743.69;;;17.37;66.17
5814;BME280;2933;52.302;8.134;2022-10-16T13:41:12;100753.19;;;17.19;68.00
5814;BME280;2933;52.302;8.134;2022-10-16T13:46:17;100748.72;;;17.19;68.78
5814;BME280;2933;52.302;8.134;2022-10-16T13:51:19;100761.09;;;17.19;67.67
5814;BME280;2933;52.302;8.134;2022-10-16T13:56:25;100761.69;;;17.22;67.46
5814;BME280;2933;52.302;8.134;2022-10-16T14:01:29;100759.81;;;17.13;67.95
5814;BME280;2933;52.302;8.134;2022-10-16T14:06:31;100762.72;;;17.10;67.59
5814;BME280;2933;52.302;8.134;2022-10-16T14:11:41;100779.44;;;16.99;68.28
5814;BME280;2933;52.302;8.134;2022-10-16T14:16:46;100776.22;;;16.95;68.42
5814;BME280;2933;52.302;8.134;2022-10-16T14:21:49;100772.53;;;16.87;69.57
5814;BME280;2933;52.302;8.134;2022-10-16T14:26:52;100773.53;;;16.74;71.26
5814;BME280;2933;52.302;8.134;2022-10-16T14:31:56;100777.03;;;16.75;70.81
5814;BME280;2933;52.302;8.134;2022-10-16T14:36:59;100783.06;;;16.66;71.66
5814;BME280;2933;52.302;8.134;2022-10-16T14:42:14;100785.59;;;16.56;70.81
5814;BME280;2933;52.302;8.134;2022-10-16T14:47:19;100781.69;;;16.50;71.91
5814;BME280;2933;52.302;8.134;2022-10-16T14:52:22;100790.44;;;16.39;72.94
5814;BME280;2933;52.302;8.134;2022-10-16T14:57:27;100798.63;;;16.36;73.41
5814;BME280;2933;52.302;8.134;2022-10-16T15:02:32;100794.31;;;16.35;73.28
5814;BME280;2933;52.302;8.134;2022-10-16T15:07:34;100794.78;;;16.29;73.77
5814;BME280;2933;52.302;8.134;2022-10-16T15:12:37;100789.56;;;16.06;73.97
5814;BME280;2933;52.302;8.134;2022-10-16T15:17:38;100805.88;;;16.00;74.45
5814;BME280;2933;52.302;8.134;2022-10-16T15:22:40;100802.38;;;15.88;75.14
5814;BME280;2933;52.302;8.134;2022-10-16T15:27:43;100797.81;;;15.79;74.99
5814;BME280;2933;52.302;8.134;2022-10-16T15:32:44;100808.44;;;15.77;76.48
5814;BME280;2933;52.302;8.134;2022-10-16T15:37:46;100808.81;;;15.61;77.28
5814;BME280;2933;52.302;8.134;2022-10-16T15:42:49;100816.22;;;15.45;78.78
5814;BME280;2933;52.302;8.134;2022-10-16T15:47:51;100818.00;;;15.33;80.16
5814;BME280;2933;52.302;8.134;2022-10-16T15:52:52;100804.22;;;15.29;81.15
5814;BME280;2933;52.302;8.134;2022-10-16T15:57:55;100817.09;;;15.10;83.58
5814;BME280;2933;52.302;8.134;2022-10-16T16:02:57;100810.44;;;14.93;85.31
5814;BME280;2933;52.302;8.134;2022-10-16T16:07:58;100819.34;;;14.79;88.01
5814;BME280;2933;52.302;8.134;2022-10-16T16:13:01;100830.25;;;14.61;89.87
5814;BME280;2933;52.302;8.134;2022-10-16T16:18:03;100825.88;;;14.49;92.55
5814;BME280;2933;52.302;8.134;2022-10-16T16:23:05;100831.69;;;14.28;94.66
5814;BME280;2933;52.302;8.134;2022-10-16T16:28:08;100836.16;;;14.15;95.72
5814;BME280;2933;52.302;8.134;2022-10-16T16:33:10;100830.91;;;14.15;95.92
5814;BME280;2933;52.302;8.134;2022-10-16T16:38:12;100841.06;;;14.19;96.22
5814;BME280;2933;52.302;8.134;2022-10-16T16:43:15;100841.06;;;14.19;96.03
5814;BME280;2933;52.302;8.134;2022-10-16T16:48:16;100840.91;;;13.97;96.63
5814;BME280;2933;52.302;8.134;2022-10-16T16:53:18;100859.84;;;13.89;97.79
5814;BME280;2933;52.302;8.134;2022-10-16T16:58:21;100849.88;;;13.81;98.61
5814;BME280;2933;52.302;8.134;2022-10-16T17:03:22;100861.63;;;13.76;98.47
5814;BME280;2933;52.302;8.134;2022-10-16T17:08:24;100835.47;;;13.48;99.74
5814;BME280;2933;52.302;8.134;2022-10-16T17:13:28;100874.31;;;13.56;99.83
5814;BME280;2933;52.302;8.134;2022-10-16T17:18:31;100884.41;;;13.35;100.00
5814;BME280;2933;52.302;8.134;2022-10-16T17:23:34;100901.03;;;13.35;100.00
5814;BME280;2933;52.302;8.134;2022-10-16T17:28:38;100895.66;;;13.37;100.00
5814;BME280;2933;52.302;8.134;2022-10-16T17:33:40;100897.81;;;13.45;100.00
5814;BME280;2933;52.302;8.134;2022-10-16T17:38:42;100893.19;;;13.48;100.00
5814;BME280;2933;52.302;8.134;2022-10-16T17:43:45;100902.25;;;13.30;100.00
5814;BME280;2933;52.302;8.134;2022-10-16T17:48:49;100884.50;;;13.20;100.00
5814;BME280;2933;52.302;8.134;2022-10-16T17:53:53;100910.00;;;13.31;100.00
5814;BME280;2933;52.302;8.134;2022-10-16T17:58:58;100914.81;;;13.12;100.00
5814;BME280;2933;52.302;8.134;2022-10-16T18:04:03;100936.78;;;13.09;100.00
5814;BME280;2933;52.302;8.134;2022-10-16T18:09:07;100949.28;;;13.05;100.00
5814;BME280;2933;52.302;8.134;2022-10-16T18:14:13;100945.13;;;12.88;100.00
5814;BME280;2933;52.302;8.134;2022-10-16T18:19:15;100912.56;;;12.78;100.00
5814;BME280;2933;52.302;8.134;2022-10-16T18:24:17;100934.53;;;12.75;100.00
5814;BME280;2933;52.302;8.134;2022-10-16T18:29:20;100924.94;;;12.61;100.00
5814;BME280;2933;52.302;8.134;2022-10-16T18:34:22;100928.75;;;12.70;100.00
5814;BME280;2933;52.302;8.134;2022-10-16T18:39:26;100912.22;;;12.55;100.00
5814;BME280;2933;52.302;8.134;2022-10-16T18:44:29;100924.25;;;12.72;100.00
5814;BME280;2933;52.302;8.134;2022-10-16T18:49:31;100922.31;;;12.61;100.00
5814;BME280;2933;52.302;8.134;2022-10-16T18:54:32;100921.03;;;12.40;100.00
5814;BME280;2933;52.302;8.134;2022-10-16T18:59:35;100926.44;;;12.51;100.00
5814;BME280;2933;52.302;8.134;2022-10-16T19:04:39;100937.47;;;12.42;100.00
5814;BME280;2933;52.302;8.134;2022-10-16T19:09:41;100933.94;;;12.43;100.00
5814;BME280;2933;52.302;8.134;2022-10-16T19:14:46;100934.22;;;12.53;100.00
5814;BME280;2933;52.302;8.134;2022-10-16T19:19:48;100927.09;;;12.40;100.00
5814;BME280;2933;52.302;8.134;2022-10-16T19:24:49;100918.22;;;12.43;100.00
5814;BME280;2933;52.302;8.134;2022-10-16T19:29:52;100927.19;;;12.24;100.00
5814;BME280;2933;52.302;8.134;2022-10-16T19:34:54;100934.13;;;12.11;100.00
5814;BME280;2933;52.302;8.134;2022-10-16T19:39:56;100939.91;;;12.02;100.00
5814;BME280;2933;52.302;8.134;2022-10-16T19:44:59;100942.72;;;12.13;100.00
5814;BME280;2933;52.302;8.134;2022-10-16T19:50:00;100953.03;;;12.16;100.00
5814;BME280;2933;52.302;8.134;2022-10-16T19:55:02;100961.63;;;12.18;100.00
5814;BME280;2933;52.302;8.134;2022-10-16T20:00:07;100950.69;;;12.11;100.00
5814;BME280;2933;52.302;8.134;2022-10-16T20:05:09;100914.25;;;11.92;100.00
5814;BME280;2933;52.302;8.134;2022-10-16T20:10:11;100938.53;;;12.25;100.00
5814;BME280;2933;52.302;8.134;2022-10-16T20:15:14;100947.59;;;12.19;100.00
5814;BME280;2933;52.302;8.134;2022-10-16T20:20:15;100951.34;;;12.15;100.00
5814;BME280;2933;52.302;8.134;2022-10-16T20:25:17;100963.81;;;12.26;100.00
5814;BME280;2933;52.302;8.134;2022-10-16T20:30:20;100983.63;;;12.30;100.00
5814;BME280;2933;52.302;8.134;2022-10-16T20:35:21;101012.75;;;12.40;100.00
5814;BME280;2933;52.302;8.134;2022-10-16T20:40:23;100999.41;;;12.14;100.00
5814;BME280;2933;52.302;8.134;2022-10-16T20:45:26;101038.00;;;12.41;100.00
5814;BME280;2933;52.302;8.134;2022-10-16T20:50:28;101042.69;;;12.36;100.00
5814;BME280;2933;52.302;8.134;2022-10-16T20:55:30;101035.75;;;12.35;100.00
5814;BME280;2933;52.302;8.134;2022-10-16T21:00:33;100995.69;;;12.33;100.00
5814;BME280;2933;52.302;8.134;2022-10-16T21:05:39;100998.94;;;12.22;100.00
5814;BME280;2933;52.302;8.134;2022-10-16T21:10:40;100996.63;;;12.17;100.00
5814;BME280;2933;52.302;8.134;2022-10-16T21:15:43;100998.88;;;12.23;100.00
5814;BME280;2933;52.302;8.134;2022-10-16T21:20:45;100988.47;;;12.22;100.00
5814;BME280;2933;52.302;8.134;2022-10-16T21:25:47;101003.72;;;12.15;100.00
5814;BME280;2933;52.302;8.134;2022-10-16T21:30:50;100993.50;;;12.10;100.00
5814;BME280;2933;52.302;8.134;2022-10-16T21:35:52;100991.03;;;12.23;100.00
5814;BME280;2933;52.302;8.134;2022-10-16T21:40:54;100986.72;;;12.22;100.00
5814;BME280;2933;52.302;8.134;2022-10-16T21:45:57;100997.47;;;12.18;100.00
5814;BME280;2933;52.302;8.134;2022-10-16T21:50:59;100986.41;;;12.27;100.00
5814;BME280;2933;52.302;8.134;2022-10-16T21:56:00;100998.88;;;12.23;100.00
5814;BME280;2933;52.302;8.134;2022-10-16T22:01:07;100983.78;;;12.12;100.00
5814;BME280;2933;52.302;8.134;2022-10-16T22:06:10;100928.66;;;11.85;100.00
5814;BME280;2933;52.302;8.134;2022-10-16T22:11:14;100968.53;;;12.19;100.00
5814;BME280;2933;52.302;8.134;2022-10-16T22:16:19;100958.16;;;12.18;100.00
5814;BME280;2933;52.302;8.134;2022-10-16T22:21:22;100955.81;;;12.13;100.00
5814;BME280;2933;52.302;8.134;2022-10-16T22:26:23;100946.47;;;12.09;100.00
5814;BME280;2933;52.302;8.134;2022-10-16T22:31:26;100934.13;;;12.11;100.00
5814;BME280;2933;52.302;8.134;2022-10-16T22:36:29;100943.59;;;12.14;100.00
5814;BME280;2933;52.302;8.134;2022-10-16T22:41:31;100947.66;;;12.03;100.00
5814;BME280;2933;52.302;8.134;2022-10-16T22:46:33;100932.91;;;12.02;100.00
5814;BME280;2933;52.302;8.134;2022-10-16T22:51:35;100920.53;;;11.90;100.00
5814;BME280;2933;52.302;8.134;2022-10-16T22:56:37;100911.50;;;11.79;100.00
5814;BME280;2933;52.302;8.134;2022-10-16T23:01:40;100930.69;;;11.80;100.00
5814;BME280;2933;52.302;8.134;2022-10-16T23:06:42;100927.97;;;11.82;100.00
5814;BME280;2933;52.302;8.134;2022-10-16T23:11:43;100900.38;;;11.61;100.00
5814;BME280;2933;52.302;8.134;2022-10-16T23:16:46;100910.16;;;11.58;100.00
5814;BME280;2933;52.302;8.134;2022-10-16T23:21:48;100884.88;;;11.42;100.00
5814;BME280;2933;52.302;8.134;2022-10-16T23:26:50;100901.91;;;11.50;100.00
5814;BME280;2933;52.302;8.134;2022-10-16T23:31:53;100907.56;;;11.58;100.00
5814;BME280;2933;52.302;8.134;2022-10-16T23:36:55;100910.03;;;11.45;100.00
5814;BME280;2933;52.302;8.134;2022-10-16T23:41:57;100907.66;;;11.56;100.00
5814;BME280;2933;52.302;8.134;2022-10-16T23:46:59;100884.47;;;11.50;100.00
5814;BME280;2933;52.302;8.134;2022-10-16T23:52:01;100907.13;;;11.80;100.00
5814;BME280;2933;52.302;8.134;2022-10-16T23:57:02;100902.81;;;11.93;100.00
